sensor_id;sensor_type;location;lat;lon;timestamp;pressure;altitude;pressure_sealevel;temperature;humidity
75629;BME280;64213;46.452;16.994;2023-09-08T00:02:06;100372.81;;;16.70;74.97
75629;BME280;64213;46.452;16.994;2023-09-08T00:05:09;100378.03;;;16.72;74.19
75629;BME280;64213;46.452;16.994;2023-09-08T00:08:12;100376.72;;;16.66;75.30
75629;BME280;64213;46.452;16.994;2023-09-08T00:11:15;100376.66;;;16.57;74.92
75629;BME280;64213;46.452;16.994;2023-09-08T00:14:17;100378.06;;;16.61;75.50
75629;BME280;64213;46.452;16.994;2023-09-08T00:17:20;100377.22;;;16.60;75.81
75629;BME280;64213;46.452;16.994;2023-09-08T00:20:22;100374.50;;;16.50;76.33
75629;BME280;64213;46.452;16.994;2023-09-08T00:23:24;100374.28;;;16.42;75.86
75629;BME280;64213;46.452;16.994;2023-09-08T00:26:28;100382.53;;;16.39;75.56
75629;BME280;64213;46.452;16.994;2023-09-08T00:29:30;100381.56;;;16.40;76.49
75629;BME280;64213;46.452;16.994;2023-09-08T00:32:33;100379.84;;;16.39;76.84
75629;BME280;64213;46.452;16.994;2023-09-08T00:35:35;100375.50;;;16.38;76.74
75629;BME280;64213;46.452;16.994;2023-09-08T00:38:37;100380.66;;;16.19;76.84
75629;BME280;64213;46.452;16.994;2023-09-08T00:41:40;100387.69;;;16.20;77.75
75629;BME280;64213;46.452;16.994;2023-09-08T00:44:42;100377.75;;;16.11;77.45
75629;BME280;64213;46.452;16.994;2023-09-08T00:47:45;100375.84;;;16.01;78.35
75629;BME280;64213;46.452;16.994;2023-09-08T00:50:48;100378.66;;;16.00;78.46
75629;BME280;64213;46.452;16.994;2023-09-08T00:53:50;100379.63;;;15.99;78.50
75629;BME280;64213;46.452;16.994;2023-09-08T00:56:56;100370.25;;;16.04;79.06
75629;BME280;64213;46.452;16.994;2023-09-08T01:00:00;100374.41;;;16.09;78.93
75629;BME280;64213;46.452;16.994;2023-09-08T01:03:03;100368.81;;;16.12;78.45
75629;BME280;64213;46.452;16.994;2023-09-08T01:06:06;100368.06;;;16.10;78.76
75629;BME280;64213;46.452;16.994;2023-09-08T01:09:09;100365.53;;;16.08;78.76
75629;BME280;64213;46.452;16.994;2023-09-08T01:12:12;100362.41;;;16.03;79.23
75629;BME280;64213;46.452;16.994;2023-09-08T01:15:14;100364.47;;;15.99;79.45
75629;BME280;64213;46.452;16.994;2023-09-08T01:18:17;100361.06;;;15.97;79.33
75629;BME280;64213;46.452;16.994;2023-09-08T01:25:04;100362.31;;;15.82;79.24
75629;BME280;64213;46.452;16.994;2023-09-08T01:28:10;100357.84;;;15.83;79.94
75629;BME280;64213;46.452;16.994;2023-09-08T01:31:15;100355.56;;;15.67;80.04
75629;BME280;64213;46.452;16.994;2023-09-08T01:34:18;100355.56;;;15.67;80.17
75629;BME280;64213;46.452;16.994;2023-09-08T01:37:23;100355.53;;;15.55;80.86
75629;BME280;64213;46.452;16.994;2023-09-08T01:40:25;100364.75;;;15.51;82.14
75629;BME280;64213;46.452;16.994;2023-09-08T01:43:27;100363.66;;;15.54;81.42
75629;BME280;64213;46.452;16.994;2023-09-08T01:46:30;100369.84;;;15.54;81.42
75629;BME280;64213;46.452;16.994;2023-09-08T01:49:32;100373.69;;;15.50;82.35
75629;BME280;64213;46.452;16.994;2023-09-08T01:52:35;100366.81;;;15.48;82.47
75629;BME280;64213;46.452;16.994;2023-09-08T01:55:37;100369.59;;;15.46;81.72
75629;BME280;64213;46.452;16.994;2023-09-08T01:58:39;100361.84;;;15.43;82.67
75629;BME280;64213;46.452;16.994;2023-09-08T02:01:42;100362.78;;;15.31;82.13
75629;BME280;64213;46.452;16.994;2023-09-08T02:04:44;100357.94;;;15.25;82.98
75629;BME280;64213;46.452;16.994;2023-09-08T02:07:47;100365.69;;;15.28;83.42
75629;BME280;64213;46.452;16.994;2023-09-08T02:10:49;100366.69;;;15.27;82.74
75629;BME280;64213;46.452;16.994;2023-09-08T02:13:52;100358.44;;;15.19;83.48
75629;BME280;64213;46.452;16.994;2023-09-08T02:16:57;100371.03;;;15.17;84.01
75629;BME280;64213;46.452;16.994;2023-09-08T02:20:00;100364.03;;;15.16;83.94
75629;BME280;64213;46.452;16.994;2023-09-08T02:23:06;100374.69;;;15.16;84.87
75629;BME280;64213;46.452;16.994;2023-09-08T02:26:09;100371.66;;;15.20;84.59
75629;BME280;64213;46.452;16.994;2023-09-08T02:29:12;100375.06;;;15.22;84.95
75629;BME280;64213;46.452;16.994;2023-09-08T02:32:15;100365.72;;;15.17;84.54
75629;BME280;64213;46.452;16.994;2023-09-08T02:35:17;100371.16;;;15.15;84.83
75629;BME280;64213;46.452;16.994;2023-09-08T02:38:20;100363.88;;;15.06;85.42
75629;BME280;64213;46.452;16.994;2023-09-08T02:41:22;100366.53;;;14.95;85.63
75629;BME280;64213;46.452;16.994;2023-09-08T02:44:25;100363.72;;;14.96;85.10
75629;BME280;64213;46.452;16.994;2023-09-08T02:47:29;100367.38;;;14.95;86.05
75629;BME280;64213;46.452;16.994;2023-09-08T02:50:31;100366.16;;;14.88;85.75
75629;BME280;64213;46.452;16.994;2023-09-08T02:53:33;100368.19;;;14.84;86.49
75629;BME280;64213;46.452;16.994;2023-09-08T02:56:36;100366.00;;;14.78;86.85
75629;BME280;64213;46.452;16.994;2023-09-08T02:59:38;100363.69;;;14.74;87.04
75629;BME280;64213;46.452;16.994;2023-09-08T03:02:41;100362.13;;;14.71;86.57
75629;BME280;64213;46.452;16.994;2023-09-08T03:05:43;100364.56;;;14.74;86.33
75629;BME280;64213;46.452;16.994;2023-09-08T03:08:46;100364.78;;;14.71;86.76
75629;BME280;64213;46.452;16.994;2023-09-08T03:11:48;100371.19;;;14.69;86.61
75629;BME280;64213;46.452;16.994;2023-09-08T03:14:51;100367.78;;;14.67;87.83
75629;BME280;64213;46.452;16.994;2023-09-08T03:17:54;100365.25;;;14.65;87.40
75629;BME280;64213;46.452;16.994;2023-09-08T03:20:57;100373.78;;;14.57;87.72
75629;BME280;64213;46.452;16.994;2023-09-08T03:23:59;100368.94;;;14.51;88.70
75629;BME280;64213;46.452;16.994;2023-09-08T03:27:01;100366.81;;;14.43;89.74
75629;BME280;64213;46.452;16.994;2023-09-08T03:30:05;100366.91;;;14.31;90.34
75629;BME280;64213;46.452;16.994;2023-09-08T03:33:07;100363.91;;;14.11;90.85
75629;BME280;64213;46.452;16.994;2023-09-08T03:36:10;100360.50;;;14.09;90.26
75629;BME280;64213;46.452;16.994;2023-09-08T03:39:12;100365.53;;;14.01;90.39
75629;BME280;64213;46.452;16.994;2023-09-08T03:42:15;100365.16;;;13.94;90.33
75629;BME280;64213;46.452;16.994;2023-09-08T03:45:17;100371.34;;;13.82;90.50
75629;BME280;64213;46.452;16.994;2023-09-08T03:48:20;100369.22;;;13.75;91.39
75629;BME280;64213;46.452;16.994;2023-09-08T03:51:22;100368.72;;;13.69;91.62
75629;BME280;64213;46.452;16.994;2023-09-08T03:54:24;100383.16;;;13.65;91.36
75629;BME280;64213;46.452;16.994;2023-09-08T03:57:27;100377.84;;;13.65;91.72
75629;BME280;64213;46.452;16.994;2023-09-08T04:00:29;100372.31;;;13.68;91.30
75629;BME280;64213;46.452;16.994;2023-09-08T04:03:32;100377.53;;;13.70;91.89
75629;BME280;64213;46.452;16.994;2023-09-08T04:06:35;100378.16;;;13.73;91.19
75629;BME280;64213;46.452;16.994;2023-09-08T04:09:38;100384.12;;;13.77;90.89
75629;BME280;64213;46.452;16.994;2023-09-08T04:12:40;100383.28;;;13.77;91.56
75629;BME280;64213;46.452;16.994;2023-09-08T04:15:43;100380.84;;;13.73;91.79
75629;BME280;64213;46.452;16.994;2023-09-08T04:18:45;100378.03;;;13.75;91.03
75629;BME280;64213;46.452;16.994;2023-09-08T04:21:48;100376.25;;;13.76;91.72
75629;BME280;64213;46.452;16.994;2023-09-08T04:24:50;100379.41;;;13.81;92.75
75629;BME280;64213;46.452;16.994;2023-09-08T04:27:53;100381.97;;;13.82;91.95
75629;BME280;64213;46.452;16.994;2023-09-08T04:30:55;100384.66;;;13.82;91.86
75629;BME280;64213;46.452;16.994;2023-09-08T04:33:57;100385.59;;;13.81;92.88
75629;BME280;64213;46.452;16.994;2023-09-08T04:37:00;100390.47;;;13.87;92.84
75629;BME280;64213;46.452;16.994;2023-09-08T04:40:03;100390.25;;;13.90;91.88
75629;BME280;64213;46.452;16.994;2023-09-08T04:43:05;100391.84;;;13.93;91.83
75629;BME280;64213;46.452;16.994;2023-09-08T04:46:07;100392.59;;;13.95;91.10
75629;BME280;64213;46.452;16.994;2023-09-08T04:49:10;100396.94;;;13.96;90.70
75629;BME280;64213;46.452;16.994;2023-09-08T04:52:12;100399.37;;;13.99;90.39
75629;BME280;64213;46.452;16.994;2023-09-08T04:55:16;100395.28;;;14.06;89.89
75629;BME280;64213;46.452;16.994;2023-09-08T04:58:19;100406.69;;;14.08;89.78
75629;BME280;64213;46.452;16.994;2023-09-08T05:01:21;100408.50;;;14.08;89.33
75629;BME280;64213;46.452;16.994;2023-09-08T05:04:24;100407.66;;;14.07;89.10
75629;BME280;64213;46.452;16.994;2023-09-08T05:07:26;100407.34;;;13.99;89.15
75629;BME280;64213;46.452;16.994;2023-09-08T05:10:28;100408.94;;;14.02;89.77
75629;BME280;64213;46.452;16.994;2023-09-08T05:13:31;100411.03;;;14.09;89.46
75629;BME280;64213;46.452;16.994;2023-09-08T05:16:33;100414.66;;;14.08;89.95
75629;BME280;64213;46.452;16.994;2023-09-08T05:19:47;100409.63;;;14.16;90.80
75629;BME280;64213;46.452;16.994;2023-09-08T05:22:50;100417.06;;;14.24;90.03
75629;BME280;64213;46.452;16.994;2023-09-08T05:25:52;100416.37;;;14.33;90.01
75629;BME280;64213;46.452;16.994;2023-09-08T05:28:54;100416.09;;;14.49;89.76
75629;BME280;64213;46.452;16.994;2023-09-08T05:31:57;100416.00;;;14.75;88.43
75629;BME280;64213;46.452;16.994;2023-09-08T05:34:59;100411.91;;;14.82;87.95
75629;BME280;64213;46.452;16.994;2023-09-08T05:38:01;100415.78;;;14.89;87.83
75629;BME280;64213;46.452;16.994;2023-09-08T05:41:04;100426.94;;;14.94;87.63
75629;BME280;64213;46.452;16.994;2023-09-08T05:44:06;100426.25;;;15.15;87.35
75629;BME280;64213;46.452;16.994;2023-09-08T05:47:09;100422.91;;;15.35;86.67
75629;BME280;64213;46.452;16.994;2023-09-08T05:50:11;100426.47;;;15.69;85.53
75629;BME280;64213;46.452;16.994;2023-09-08T05:53:14;100419.72;;;16.20;83.71
75629;BME280;64213;46.452;16.994;2023-09-08T05:56:18;100419.22;;;16.69;81.81
75629;BME280;64213;46.452;16.994;2023-09-08T05:59:21;100414.94;;;17.20;80.13
75629;BME280;64213;46.452;16.994;2023-09-08T06:02:24;100417.72;;;17.70;78.37
75629;BME280;64213;46.452;16.994;2023-09-08T06:05:26;100419.31;;;18.13;76.10
75629;BME280;64213;46.452;16.994;2023-09-08T06:08:28;100418.78;;;18.48;75.37
75629;BME280;64213;46.452;16.994;2023-09-08T06:11:30;100412.06;;;18.83;74.08
75629;BME280;64213;46.452;16.994;2023-09-08T06:14:33;100418.78;;;19.07;71.71
75629;BME280;64213;46.452;16.994;2023-09-08T06:17:35;100423.87;;;19.57;69.68
75629;BME280;64213;46.452;16.994;2023-09-08T06:20:44;100434.03;;;19.72;70.68
75629;BME280;64213;46.452;16.994;2023-09-08T06:23:46;100433.59;;;20.23;67.97
75629;BME280;64213;46.452;16.994;2023-09-08T06:26:49;100426.69;;;20.65;67.00
75629;BME280;64213;46.452;16.994;2023-09-08T06:29:52;100430.34;;;21.00;66.59
75629;BME280;64213;46.452;16.994;2023-09-08T06:32:57;100438.75;;;21.41;65.03
75629;BME280;64213;46.452;16.994;2023-09-08T06:36:00;100435.28;;;21.83;63.17
75629;BME280;64213;46.452;16.994;2023-09-08T06:39:02;100437.19;;;21.99;63.46
75629;BME280;64213;46.452;16.994;2023-09-08T06:42:05;100433.59;;;22.33;61.35
75629;BME280;64213;46.452;16.994;2023-09-08T06:45:08;100432.16;;;22.71;60.96
75629;BME280;64213;46.452;16.994;2023-09-08T06:48:10;100426.13;;;23.02;59.92
75629;BME280;64213;46.452;16.994;2023-09-08T06:51:13;100436.03;;;23.34;59.34
75629;BME280;64213;46.452;16.994;2023-09-08T06:54:15;100427.69;;;23.60;57.65
75629;BME280;64213;46.452;16.994;2023-09-08T06:57:18;100427.75;;;23.43;57.39
75629;BME280;64213;46.452;16.994;2023-09-08T07:00:22;100427.19;;;23.64;57.74
75629;BME280;64213;46.452;16.994;2023-09-08T07:03:24;100426.59;;;24.25;55.70
75629;BME280;64213;46.452;16.994;2023-09-08T07:06:28;100422.63;;;24.44;55.17
75629;BME280;64213;46.452;16.994;2023-09-08T07:09:31;100412.22;;;24.78;54.44
75629;BME280;64213;46.452;16.994;2023-09-08T07:12:34;100421.81;;;25.71;52.68
75629;BME280;64213;46.452;16.994;2023-09-08T07:15:36;100420.22;;;26.07;51.34
75629;BME280;64213;46.452;16.994;2023-09-08T07:18:38;100419.75;;;26.54;49.80
75629;BME280;64213;46.452;16.994;2023-09-08T07:21:41;100416.13;;;26.69;48.47
75629;BME280;64213;46.452;16.994;2023-09-08T07:24:44;100426.97;;;26.32;46.66
75629;BME280;64213;46.452;16.994;2023-09-08T07:27:47;100433.75;;;25.33;48.01
75629;BME280;64213;46.452;16.994;2023-09-08T07:30:50;100427.53;;;26.06;48.17
75629;BME280;64213;46.452;16.994;2023-09-08T07:33:52;100425.88;;;26.63;47.29
75629;BME280;64213;46.452;16.994;2023-09-08T07:36:54;100430.34;;;26.92;45.60
75629;BME280;64213;46.452;16.994;2023-09-08T07:39:56;100434.28;;;27.39;42.85
75629;BME280;64213;46.452;16.994;2023-09-08T07:42:59;100432.09;;;27.56;43.30
75629;BME280;64213;46.452;16.994;2023-09-08T07:46:01;100427.88;;;27.19;44.47
75629;BME280;64213;46.452;16.994;2023-09-08T07:49:03;100434.69;;;27.36;43.31
75629;BME280;64213;46.452;16.994;2023-09-08T07:52:06;100434.84;;;27.63;43.16
75629;BME280;64213;46.452;16.994;2023-09-08T07:55:09;100434.88;;;28.04;42.76
75629;BME280;64213;46.452;16.994;2023-09-08T07:58:12;100427.47;;;28.39;42.06
75629;BME280;64213;46.452;16.994;2023-09-08T08:01:14;100440.53;;;28.64;40.33
75629;BME280;64213;46.452;16.994;2023-09-08T08:04:17;100436.31;;;28.41;40.93
75629;BME280;64213;46.452;16.994;2023-09-08T08:07:19;100426.34;;;28.82;41.15
75629;BME280;64213;46.452;16.994;2023-09-08T08:15:33;100421.22;;;29.78;39.44
75629;BME280;64213;46.452;16.994;2023-09-08T08:18:54;100425.69;;;30.18;38.47
75629;BME280;64213;46.452;16.994;2023-09-08T08:21:57;100422.16;;;29.06;39.36
75629;BME280;64213;46.452;16.994;2023-09-08T08:25:01;100423.37;;;28.77;40.43
75629;BME280;64213;46.452;16.994;2023-09-08T08:28:05;100418.38;;;29.33;39.62
75629;BME280;64213;46.452;16.994;2023-09-08T08:31:07;100420.00;;;29.74;39.21
75629;BME280;64213;46.452;16.994;2023-09-08T08:34:10;100414.88;;;29.98;38.98
75629;BME280;64213;46.452;16.994;2023-09-08T08:37:12;100421.97;;;29.99;39.04
75629;BME280;64213;46.452;16.994;2023-09-08T08:40:15;100418.72;;;29.70;39.93
75629;BME280;64213;46.452;16.994;2023-09-08T08:43:17;100416.53;;;30.44;38.63
75629;BME280;64213;46.452;16.994;2023-09-08T08:46:22;100417.09;;;29.49;40.68
75629;BME280;64213;46.452;16.994;2023-09-08T08:49:25;100413.13;;;30.10;39.99
75629;BME280;64213;46.452;16.994;2023-09-08T08:52:29;100407.47;;;30.81;38.29
75629;BME280;64213;46.452;16.994;2023-09-08T08:55:31;100414.19;;;30.86;38.18
75629;BME280;64213;46.452;16.994;2023-09-08T08:58:36;100406.19;;;31.09;37.93
75629;BME280;64213;46.452;16.994;2023-09-08T09:01:41;100405.44;;;30.70;38.75
75629;BME280;64213;46.452;16.994;2023-09-08T09:04:44;100405.12;;;30.85;37.99
75629;BME280;64213;46.452;16.994;2023-09-08T09:07:48;100414.66;;;31.88;36.11
75629;BME280;64213;46.452;16.994;2023-09-08T09:10:51;100417.72;;;31.36;36.50
75629;BME280;64213;46.452;16.994;2023-09-08T09:13:54;100412.31;;;31.30;36.84
75629;BME280;64213;46.452;16.994;2023-09-08T09:16:57;100412.50;;;30.85;37.64
75629;BME280;64213;46.452;16.994;2023-09-08T09:20:16;100410.44;;;30.80;37.61
75629;BME280;64213;46.452;16.994;2023-09-08T09:23:30;100410.25;;;32.35;34.47
75629;BME280;64213;46.452;16.994;2023-09-08T09:26:32;100408.06;;;31.95;35.02
75629;BME280;64213;46.452;16.994;2023-09-08T09:29:48;100405.19;;;31.28;36.04
75629;BME280;64213;46.452;16.994;2023-09-08T09:33:01;100404.09;;;32.40;33.99
75629;BME280;64213;46.452;16.994;2023-09-08T09:36:05;100402.75;;;32.01;34.99
75629;BME280;64213;46.452;16.994;2023-09-08T09:39:08;100392.41;;;32.86;33.58
75629;BME280;64213;46.452;16.994;2023-09-08T09:42:10;100390.53;;;32.87;33.55
75629;BME280;64213;46.452;16.994;2023-09-08T09:45:14;100398.88;;;33.63;32.53
75629;BME280;64213;46.452;16.994;2023-09-08T09:48:20;100391.88;;;34.07;32.08
75629;BME280;64213;46.452;16.994;2023-09-08T09:51:23;100386.88;;;35.12;30.25
75629;BME280;64213;46.452;16.994;2023-09-08T09:54:25;100385.44;;;35.26;29.56
75629;BME280;64213;46.452;16.994;2023-09-08T09:57:28;100382.56;;;33.44;30.64
75629;BME280;64213;46.452;16.994;2023-09-08T10:00:33;100382.41;;;34.43;30.22
75629;BME280;64213;46.452;16.994;2023-09-08T10:03:39;100376.94;;;34.15;30.68
75629;BME280;64213;46.452;16.994;2023-09-08T10:06:43;100378.09;;;34.64;29.63
75629;BME280;64213;46.452;16.994;2023-09-08T10:09:46;100374.84;;;35.57;28.69
75629;BME280;64213;46.452;16.994;2023-09-08T10:12:53;100371.69;;;35.48;29.44
75629;BME280;64213;46.452;16.994;2023-09-08T10:15:58;100365.94;;;36.70;27.93
75629;BME280;64213;46.452;16.994;2023-09-08T10:19:05;100367.41;;;36.23;28.13
75629;BME280;64213;46.452;16.994;2023-09-08T10:22:11;100359.53;;;34.71;29.67
75629;BME280;64213;46.452;16.994;2023-09-08T10:25:16;100362.94;;;35.73;28.13
75629;BME280;64213;46.452;16.994;2023-09-08T10:28:22;100362.72;;;35.53;27.90
75629;BME280;64213;46.452;16.994;2023-09-08T10:31:28;100366.16;;;36.09;27.61
75629;BME280;64213;46.452;16.994;2023-09-08T10:34:33;100355.63;;;34.67;29.03
75629;BME280;64213;46.452;16.994;2023-09-08T10:37:36;100358.00;;;33.90;30.22
75629;BME280;64213;46.452;16.994;2023-09-08T10:40:42;100355.44;;;35.47;28.10
75629;BME280;64213;46.452;16.994;2023-09-08T10:43:57;100360.28;;;36.92;26.47
75629;BME280;64213;46.452;16.994;2023-09-08T10:47:02;100365.47;;;35.75;27.11
75629;BME280;64213;46.452;16.994;2023-09-08T10:50:05;100351.22;;;35.83;27.47
75629;BME280;64213;46.452;16.994;2023-09-08T10:53:16;100351.09;;;36.81;25.91
75629;BME280;64213;46.452;16.994;2023-09-08T10:56:19;100357.91;;;36.09;26.20
75629;BME280;64213;46.452;16.994;2023-09-08T10:59:34;100342.22;;;37.06;25.76
75629;BME280;64213;46.452;16.994;2023-09-08T11:02:50;100344.34;;;35.80;27.46
75629;BME280;64213;46.452;16.994;2023-09-08T11:05:58;100339.31;;;36.91;26.13
75629;BME280;64213;46.452;16.994;2023-09-08T11:09:08;100345.16;;;36.57;25.79
75629;BME280;64213;46.452;16.994;2023-09-08T11:12:10;100335.09;;;37.15;25.27
75629;BME280;64213;46.452;16.994;2023-09-08T11:15:12;100331.03;;;36.86;26.28
75629;BME280;64213;46.452;16.994;2023-09-08T11:18:15;100332.41;;;37.31;25.62
75629;BME280;64213;46.452;16.994;2023-09-08T11:21:18;100334.16;;;36.03;26.53
75629;BME280;64213;46.452;16.994;2023-09-08T11:24:20;100325.19;;;36.82;25.17
75629;BME280;64213;46.452;16.994;2023-09-08T11:27:23;100330.06;;;37.50;24.56
75629;BME280;64213;46.452;16.994;2023-09-08T11:30:25;100331.00;;;37.86;24.34
75629;BME280;64213;46.452;16.994;2023-09-08T11:33:27;100328.03;;;38.13;23.83
75629;BME280;64213;46.452;16.994;2023-09-08T11:36:35;100325.53;;;36.91;25.13
75629;BME280;64213;46.452;16.994;2023-09-08T11:39:42;100327.00;;;37.51;23.94
75629;BME280;64213;46.452;16.994;2023-09-08T11:42:45;100322.41;;;35.91;25.73
75629;BME280;64213;46.452;16.994;2023-09-08T11:45:49;100321.13;;;36.95;24.87
75629;BME280;64213;46.452;16.994;2023-09-08T11:48:51;100317.41;;;36.09;26.13
75629;BME280;64213;46.452;16.994;2023-09-08T11:51:55;100310.12;;;36.58;25.25
75629;BME280;64213;46.452;16.994;2023-09-08T11:54:58;100312.28;;;36.23;25.91
75629;BME280;64213;46.452;16.994;2023-09-08T11:58:08;100307.44;;;37.05;24.84
75629;BME280;64213;46.452;16.994;2023-09-08T12:01:11;100310.75;;;37.07;24.72
75629;BME280;64213;46.452;16.994;2023-09-08T12:04:18;100303.38;;;37.23;24.15
75629;BME280;64213;46.452;16.994;2023-09-08T12:07:22;100303.12;;;37.30;23.55
75629;BME280;64213;46.452;16.994;2023-09-08T12:10:25;100294.03;;;37.24;23.50
75629;BME280;64213;46.452;16.994;2023-09-08T12:13:27;100287.22;;;36.94;23.40
75629;BME280;64213;46.452;16.994;2023-09-08T12:16:30;100294.72;;;35.53;24.96
75629;BME280;64213;46.452;16.994;2023-09-08T12:19:32;100281.97;;;34.36;26.71
75629;BME280;64213;46.452;16.994;2023-09-08T12:22:35;100282.09;;;33.67;27.35
75629;BME280;64213;46.452;16.994;2023-09-08T12:25:45;100279.81;;;34.71;25.61
75629;BME280;64213;46.452;16.994;2023-09-08T12:28:47;100281.53;;;35.77;24.09
75629;BME280;64213;46.452;16.994;2023-09-08T12:31:50;100271.84;;;36.29;23.16
75629;BME280;64213;46.452;16.994;2023-09-08T12:34:53;100269.50;;;34.28;25.57
75629;BME280;64213;46.452;16.994;2023-09-08T12:38:00;100266.59;;;32.85;27.56
75629;BME280;64213;46.452;16.994;2023-09-08T12:41:03;100267.13;;;32.28;28.34
75629;BME280;64213;46.452;16.994;2023-09-08T12:44:06;100271.16;;;31.84;29.54
75629;BME280;64213;46.452;16.994;2023-09-08T12:47:10;100265.97;;;31.94;29.27
75629;BME280;64213;46.452;16.994;2023-09-08T12:50:13;100253.63;;;33.04;27.88
75629;BME280;64213;46.452;16.994;2023-09-08T12:53:16;100251.66;;;34.14;26.81
75629;BME280;64213;46.452;16.994;2023-09-08T12:56:20;100247.50;;;34.62;26.17
75629;BME280;64213;46.452;16.994;2023-09-08T12:59:23;100250.78;;;35.58;24.95
75629;BME280;64213;46.452;16.994;2023-09-08T13:02:26;100245.66;;;36.26;24.35
75629;BME280;64213;46.452;16.994;2023-09-08T13:05:28;100237.53;;;36.47;23.68
75629;BME280;64213;46.452;16.994;2023-09-08T13:08:31;100242.47;;;35.80;23.99
75629;BME280;64213;46.452;16.994;2023-09-08T13:11:33;100231.94;;;36.37;23.28
75629;BME280;64213;46.452;16.994;2023-09-08T13:14:36;100225.88;;;36.02;23.33
75629;BME280;64213;46.452;16.994;2023-09-08T13:17:38;100226.19;;;36.43;22.75
75629;BME280;64213;46.452;16.994;2023-09-08T13:20:41;100225.44;;;35.83;23.82
75629;BME280;64213;46.452;16.994;2023-09-08T13:23:44;100220.97;;;36.42;23.40
75629;BME280;64213;46.452;16.994;2023-09-08T13:26:46;100223.19;;;36.45;23.72
75629;BME280;64213;46.452;16.994;2023-09-08T13:29:49;100215.28;;;36.53;23.82
75629;BME280;64213;46.452;16.994;2023-09-08T13:32:52;100213.00;;;36.45;24.35
75629;BME280;64213;46.452;16.994;2023-09-08T13:35:55;100218.78;;;35.08;25.41
75629;BME280;64213;46.452;16.994;2023-09-08T13:38:58;100207.66;;;34.81;25.67
75629;BME280;64213;46.452;16.994;2023-09-08T13:42:02;100203.56;;;34.45;26.03
75629;BME280;64213;46.452;16.994;2023-09-08T13:45:05;100203.94;;;35.85;24.44
75629;BME280;64213;46.452;16.994;2023-09-08T13:48:08;100206.78;;;35.96;23.95
75629;BME280;64213;46.452;16.994;2023-09-08T13:51:14;100202.25;;;36.49;23.39
75629;BME280;64213;46.452;16.994;2023-09-08T13:54:19;100203.41;;;35.83;24.33
75629;BME280;64213;46.452;16.994;2023-09-08T13:57:25;100204.31;;;35.67;24.39
75629;BME280;64213;46.452;16.994;2023-09-08T14:00:30;100202.34;;;36.54;23.46
75629;BME280;64213;46.452;16.994;2023-09-08T14:03:33;100190.34;;;35.47;24.43
75629;BME280;64213;46.452;16.994;2023-09-08T14:06:56;100198.50;;;35.36;24.47
75629;BME280;64213;46.452;16.994;2023-09-08T14:10:07;100192.06;;;34.87;25.07
75629;BME280;64213;46.452;16.994;2023-09-08T14:13:14;100192.19;;;35.14;25.38
75629;BME280;64213;46.452;16.994;2023-09-08T14:16:18;100193.19;;;35.30;25.01
75629;BME280;64213;46.452;16.994;2023-09-08T14:19:21;100189.81;;;35.50;24.28
75629;BME280;64213;46.452;16.994;2023-09-08T14:22:24;100181.91;;;35.80;23.79
75629;BME280;64213;46.452;16.994;2023-09-08T14:25:26;100179.97;;;36.13;23.41
75629;BME280;64213;46.452;16.994;2023-09-08T14:28:29;100181.62;;;35.82;23.54
75629;BME280;64213;46.452;16.994;2023-09-08T14:31:34;100180.38;;;35.40;24.34
75629;BME280;64213;46.452;16.994;2023-09-08T14:34:37;100169.56;;;35.56;24.54
75629;BME280;64213;46.452;16.994;2023-09-08T14:37:40;100166.19;;;35.81;24.31
75629;BME280;64213;46.452;16.994;2023-09-08T14:40:42;100171.38;;;36.04;24.14
75629;BME280;64213;46.452;16.994;2023-09-08T14:43:45;100167.72;;;34.95;24.87
75629;BME280;64213;46.452;16.994;2023-09-08T14:46:47;100161.69;;;34.55;25.28
75629;BME280;64213;46.452;16.994;2023-09-08T14:49:50;100159.13;;;34.31;25.52
75629;BME280;64213;46.452;16.994;2023-09-08T14:52:53;100150.22;;;34.41;25.44
75629;BME280;64213;46.452;16.994;2023-09-08T14:55:55;100152.25;;;33.49;27.37
75629;BME280;64213;46.452;16.994;2023-09-08T14:58:59;100154.44;;;33.64;27.22
75629;BME280;64213;46.452;16.994;2023-09-08T15:02:02;100148.19;;;33.23;27.48
75629;BME280;64213;46.452;16.994;2023-09-08T15:05:05;100151.69;;;32.55;28.15
75629;BME280;64213;46.452;16.994;2023-09-08T15:08:08;100148.50;;;31.39;29.76
75629;BME280;64213;46.452;16.994;2023-09-08T15:11:10;100139.75;;;32.37;28.43
75629;BME280;64213;46.452;16.994;2023-09-08T15:14:13;100147.50;;;32.40;28.38
75629;BME280;64213;46.452;16.994;2023-09-08T15:17:15;100142.47;;;32.73;28.12
75629;BME280;64213;46.452;16.994;2023-09-08T15:20:20;100147.66;;;32.86;28.14
75629;BME280;64213;46.452;16.994;2023-09-08T15:23:23;100146.41;;;33.17;27.72
75629;BME280;64213;46.452;16.994;2023-09-08T15:26:26;100147.25;;;32.30;28.76
75629;BME280;64213;46.452;16.994;2023-09-08T15:29:29;100135.72;;;32.40;28.68
75629;BME280;64213;46.452;16.994;2023-09-08T15:32:34;100140.56;;;32.38;29.30
75629;BME280;64213;46.452;16.994;2023-09-08T15:35:42;100138.47;;;32.16;29.66
75629;BME280;64213;46.452;16.994;2023-09-08T15:38:45;100144.41;;;32.13;29.87
75629;BME280;64213;46.452;16.994;2023-09-08T15:41:48;100130.56;;;31.85;30.55
75629;BME280;64213;46.452;16.994;2023-09-08T15:44:51;100139.47;;;31.38;31.49
75629;BME280;64213;46.452;16.994;2023-09-08T15:47:54;100142.19;;;30.90;32.62
75629;BME280;64213;46.452;16.994;2023-09-08T15:50:57;100142.25;;;30.46;33.59
75629;BME280;64213;46.452;16.994;2023-09-08T15:54:00;100145.34;;;30.31;33.64
75629;BME280;64213;46.452;16.994;2023-09-08T15:57:03;100135.37;;;29.94;34.44